sensor_id;sensor_type;location;lat;lon;timestamp;temperature;humidity
52799;DHT22;38667;42.872;74.622;2023-06-14T00:00:11;21.90;49.70
52799;DHT22;38667;42.872;74.622;2023-06-14T00:02:39;21.70;50.80
52799;DHT22;38667;42.872;74.622;2023-06-14T00:05:06;21.70;49.70
52799;DHT22;38667;42.872;74.622;2023-06-14T00:07:36;22.00;49.50
52799;DHT22;38667;42.872;74.622;2023-06-14T00:10:05;22.20;48.60
52799;DHT22;38667;42.872;74.622;2023-06-14T00:12:31;22.10;48.80
52799;DHT22;38667;42.872;74.622;2023-06-14T00:14:58;21.90;51.00
52799;DHT22;38667;42.872;74.622;2023-06-14T00:17:24;21.70;51.10
52799;DHT22;38667;42.872;74.622;2023-06-14T00:19:50;21.60;51.30
52799;DHT22;38667;42.872;74.622;2023-06-14T00:22:17;21.90;50.50
52799;DHT22;38667;42.872;74.622;2023-06-14T00:24:43;22.20;49.80
52799;DHT22;38667;42.872;74.622;2023-06-14T00:27:11;22.20;49.40
52799;DHT22;38667;42.872;74.622;2023-06-14T00:29:37;22.10;49.40
52799;DHT22;38667;42.872;74.622;2023-06-14T00:32:04;22.00;51.20
52799;DHT22;38667;42.872;74.622;2023-06-14T00:34:31;22.10;50.70
52799;DHT22;38667;42.872;74.622;2023-06-14T00:36:57;22.40;50.50
52799;DHT22;38667;42.872;74.622;2023-06-14T00:39:23;22.60;49.60
52799;DHT22;38667;42.872;74.622;2023-06-14T00:41:49;22.40;50.90
52799;DHT22;38667;42.872;74.622;2023-06-14T00:44:18;22.30;51.60
52799;DHT22;38667;42.872;74.622;2023-06-14T00:46:45;22.10;53.60
52799;DHT22;38667;42.872;74.622;2023-06-14T00:49:12;22.10;53.20
52799;DHT22;38667;42.872;74.622;2023-06-14T00:51:38;22.20;52.10
52799;DHT22;38667;42.872;74.622;2023-06-14T00:54:05;22.50;50.60
52799;DHT22;38667;42.872;74.622;2023-06-14T00:56:31;22.70;51.90
52799;DHT22;38667;42.872;74.622;2023-06-14T00:58:58;22.60;52.10
52799;DHT22;38667;42.872;74.622;2023-06-14T01:01:26;22.50;53.40
52799;DHT22;38667;42.872;74.622;2023-06-14T01:03:52;22.30;54.10
52799;DHT22;38667;42.872;74.622;2023-06-14T01:06:23;22.30;53.50
52799;DHT22;38667;42.872;74.622;2023-06-14T01:09:01;22.60;52.60
52799;DHT22;38667;42.872;74.622;2023-06-14T01:11:32;22.90;52.10
52799;DHT22;38667;42.872;74.622;2023-06-14T01:14:02;23.10;51.70
52799;DHT22;38667;42.872;74.622;2023-06-14T01:16:30;22.90;53.00
52799;DHT22;38667;42.872;74.622;2023-06-14T01:18:57;22.80;53.30
52799;DHT22;38667;42.872;74.622;2023-06-14T01:21:25;22.80;55.40
52799;DHT22;38667;42.872;74.622;2023-06-14T01:23:53;22.90;53.90
52799;DHT22;38667;42.872;74.622;2023-06-14T01:26:20;23.30;52.20
52799;DHT22;38667;42.872;74.622;2023-06-14T01:28:47;23.50;51.80
52799;DHT22;38667;42.872;74.622;2023-06-14T01:31:16;23.50;52.50
52799;DHT22;38667;42.872;74.622;2023-06-14T01:33:44;23.40;52.60
52799;DHT22;38667;42.872;74.622;2023-06-14T01:36:11;23.30;53.10
52799;DHT22;38667;42.872;74.622;2023-06-14T01:38:38;23.20;53.70
52799;DHT22;38667;42.872;74.622;2023-06-14T01:41:07;23.60;52.50
52799;DHT22;38667;42.872;74.622;2023-06-14T01:43:33;23.80;51.60
52799;DHT22;38667;42.872;74.622;2023-06-14T01:46:01;24.00;51.30
52799;DHT22;38667;42.872;74.622;2023-06-14T01:48:28;23.90;52.00
52799;DHT22;38667;42.872;74.622;2023-06-14T01:50:54;23.90;53.20
52799;DHT22;38667;42.872;74.622;2023-06-14T01:53:20;23.80;50.10
52799;DHT22;38667;42.872;74.622;2023-06-14T01:55:47;23.90;49.70
52799;DHT22;38667;42.872;74.622;2023-06-14T01:58:16;24.10;48.60
52799;DHT22;38667;42.872;74.622;2023-06-14T02:00:42;24.30;47.90
52799;DHT22;38667;42.872;74.622;2023-06-14T02:03:09;24.40;47.50
52799;DHT22;38667;42.872;74.622;2023-06-14T02:05:35;24.40;47.20
52799;DHT22;38667;42.872;74.622;2023-06-14T02:08:01;24.20;48.70
52799;DHT22;38667;42.872;74.622;2023-06-14T02:10:28;24.10;48.80
52799;DHT22;38667;42.872;74.622;2023-06-14T02:12:54;24.20;49.80
52799;DHT22;38667;42.872;74.622;2023-06-14T02:15:22;24.30;49.60
52799;DHT22;38667;42.872;74.622;2023-06-14T02:17:48;24.40;49.70
52799;DHT22;38667;42.872;74.622;2023-06-14T02:20:15;24.30;49.40
52799;DHT22;38667;42.872;74.622;2023-06-14T02:22:41;24.20;48.50
52799;DHT22;38667;42.872;74.622;2023-06-14T02:25:08;24.10;48.90
52799;DHT22;38667;42.872;74.622;2023-06-14T02:27:34;24.10;49.30
52799;DHT22;38667;42.872;74.622;2023-06-14T02:30:01;24.30;48.50
52799;DHT22;38667;42.872;74.622;2023-06-14T02:32:29;24.50;48.30
52799;DHT22;38667;42.872;74.622;2023-06-14T02:34:55;24.60;48.00
52799;DHT22;38667;42.872;74.622;2023-06-14T02:37:21;24.60;47.80
52799;DHT22;38667;42.872;74.622;2023-06-14T02:39:48;24.50;47.70
52799;DHT22;38667;42.872;74.622;2023-06-14T02:42:14;24.50;47.60
52799;DHT22;38667;42.872;74.622;2023-06-14T02:44:40;24.60;47.40
52799;DHT22;38667;42.872;74.622;2023-06-14T02:47:07;24.80;46.80
52799;DHT22;38667;42.872;74.622;2023-06-14T02:49:35;24.90;45.80
52799;DHT22;38667;42.872;74.622;2023-06-14T02:52:01;25.00;45.50
52799;DHT22;38667;42.872;74.622;2023-06-14T02:54:27;24.90;45.80
52799;DHT22;38667;42.872;74.622;2023-06-14T02:56:54;24.90;46.00
52799;DHT22;38667;42.872;74.622;2023-06-14T02:59:20;24.90;46.60
52799;DHT22;38667;42.872;74.622;2023-06-14T03:01:46;25.20;47.70
52799;DHT22;38667;42.872;74.622;2023-06-14T03:04:13;25.40;47.90
52799;DHT22;38667;42.872;74.622;2023-06-14T03:06:41;25.40;46.50
52799;DHT22;38667;42.872;74.622;2023-06-14T03:09:07;25.40;45.90
52799;DHT22;38667;42.872;74.622;2023-06-14T03:11:33;25.30;45.80
52799;DHT22;38667;42.872;74.622;2023-06-14T03:14:00;25.30;45.20
52799;DHT22;38667;42.872;74.622;2023-06-14T03:16:27;25.50;45.50
52799;DHT22;38667;42.872;74.622;2023-06-14T03:18:53;25.70;43.60
52799;DHT22;38667;42.872;74.622;2023-06-14T03:21:20;25.80;45.00
52799;DHT22;38667;42.872;74.622;2023-06-14T03:23:48;25.80;44.50
52799;DHT22;38667;42.872;74.622;2023-06-14T03:26:14;25.80;43.60
52799;DHT22;38667;42.872;74.622;2023-06-14T03:28:41;25.70;43.60
52799;DHT22;38667;42.872;74.622;2023-06-14T03:31:07;25.80;42.20
52799;DHT22;38667;42.872;74.622;2023-06-14T03:33:33;26.10;43.60
52799;DHT22;38667;42.872;74.622;2023-06-14T03:36:00;26.30;39.80
52799;DHT22;38667;42.872;74.622;2023-06-14T03:38:26;26.30;40.20
52799;DHT22;38667;42.872;74.622;2023-06-14T03:40:54;26.30;39.90
52799;DHT22;38667;42.872;74.622;2023-06-14T03:43:20;26.20;40.20
52799;DHT22;38667;42.872;74.622;2023-06-14T03:45:46;26.40;39.60
52799;DHT22;38667;42.872;74.622;2023-06-14T03:48:13;26.60;39.60
52799;DHT22;38667;42.872;74.622;2023-06-14T03:50:39;26.90;39.40
52799;DHT22;38667;42.872;74.622;2023-06-14T03:53:06;26.90;39.60
52799;DHT22;38667;42.872;74.622;2023-06-14T03:55:32;26.80;39.20
52799;DHT22;38667;42.872;74.622;2023-06-14T03:58:00;26.70;39.40
52799;DHT22;38667;42.872;74.622;2023-06-14T04:00:27;26.90;39.20
52799;DHT22;38667;42.872;74.622;2023-06-14T04:02:53;27.20;39.70
52799;DHT22;38667;42.872;74.622;2023-06-14T04:05:20;27.40;38.80
52799;DHT22;38667;42.872;74.622;2023-06-14T04:07:46;27.40;38.40
52799;DHT22;38667;42.872;74.622;2023-06-14T04:10:13;27.30;38.10
52799;DHT22;38667;42.872;74.622;2023-06-14T04:12:40;27.20;37.40
52799;DHT22;38667;42.872;74.622;2023-06-14T04:15:09;27.30;37.30
52799;DHT22;38667;42.872;74.622;2023-06-14T04:17:36;27.50;36.70
52799;DHT22;38667;42.872;74.622;2023-06-14T04:20:03;27.70;36.90
52799;DHT22;38667;42.872;74.622;2023-06-14T04:22:30;27.60;37.50
52799;DHT22;38667;42.872;74.622;2023-06-14T04:24:56;27.50;37.40
52799;DHT22;38667;42.872;74.622;2023-06-14T04:27:23;27.60;36.60
52799;DHT22;38667;42.872;74.622;2023-06-14T04:29:49;27.70;36.20
52799;DHT22;38667;42.872;74.622;2023-06-14T04:32:17;27.90;34.70
52799;DHT22;38667;42.872;74.622;2023-06-14T04:34:43;27.90;35.50
52799;DHT22;38667;42.872;74.622;2023-06-14T04:37:09;27.80;36.20
52799;DHT22;38667;42.872;74.622;2023-06-14T04:39:36;27.70;36.70
52799;DHT22;38667;42.872;74.622;2023-06-14T04:42:02;27.80;37.70
52799;DHT22;38667;42.872;74.622;2023-06-14T04:44:29;27.90;38.50
52799;DHT22;38667;42.872;74.622;2023-06-14T04:46:55;27.70;38.40
52799;DHT22;38667;42.872;74.622;2023-06-14T04:49:23;27.40;38.50
52799;DHT22;38667;42.872;74.622;2023-06-14T04:51:49;27.20;38.90
52799;DHT22;38667;42.872;74.622;2023-06-14T04:54:16;27.00;38.60
52799;DHT22;38667;42.872;74.622;2023-06-14T04:56:42;27.00;39.10
52799;DHT22;38667;42.872;74.622;2023-06-14T04:59:09;27.30;38.50
52799;DHT22;38667;42.872;74.622;2023-06-14T05:01:35;27.60;38.00
52799;DHT22;38667;42.872;74.622;2023-06-14T05:04:02;27.60;38.50
52799;DHT22;38667;42.872;74.622;2023-06-14T05:06:30;27.60;37.70
52799;DHT22;38667;42.872;74.622;2023-06-14T05:08:56;27.90;36.70
52799;DHT22;38667;42.872;74.622;2023-06-14T05:11:23;27.80;37.60
52799;DHT22;38667;42.872;74.622;2023-06-14T05:13:49;27.70;37.80
52799;DHT22;38667;42.872;74.622;2023-06-14T05:16:15;27.80;37.50
52799;DHT22;38667;42.872;74.622;2023-06-14T05:18:42;27.70;38.00
52799;DHT22;38667;42.872;74.622;2023-06-14T05:21:08;27.60;38.40
52799;DHT22;38667;42.872;74.622;2023-06-14T05:23:36;27.50;38.40
52799;DHT22;38667;42.872;74.622;2023-06-14T05:26:02;27.40;38.20
52799;DHT22;38667;42.872;74.622;2023-06-14T05:28:28;27.40;38.50
52799;DHT22;38667;42.872;74.622;2023-06-14T05:30:55;27.40;38.60
52799;DHT22;38667;42.872;74.622;2023-06-14T05:33:21;27.50;38.50
52799;DHT22;38667;42.872;74.622;2023-06-14T05:35:47;27.60;38.50
52799;DHT22;38667;42.872;74.622;2023-06-14T05:38:14;27.70;37.60
52799;DHT22;38667;42.872;74.622;2023-06-14T05:40:41;27.70;37.40
52799;DHT22;38667;42.872;74.622;2023-06-14T05:43:08;27.60;37.30
52799;DHT22;38667;42.872;74.622;2023-06-14T05:45:34;27.90;36.60
52799;DHT22;38667;42.872;74.622;2023-06-14T05:48:00;28.20;37.10
52799;DHT22;38667;42.872;74.622;2023-06-14T05:50:27;28.50;36.40
52799;DHT22;38667;42.872;74.622;2023-06-14T05:52:53;28.60;36.00
52799;DHT22;38667;42.872;74.622;2023-06-14T05:55:20;28.60;35.80
52799;DHT22;38667;42.872;74.622;2023-06-14T05:57:48;28.70;35.70
52799;DHT22;38667;42.872;74.622;2023-06-14T06:00:16;29.20;36.30
52799;DHT22;38667;42.872;74.622;2023-06-14T06:02:42;29.30;35.70
52799;DHT22;38667;42.872;74.622;2023-06-14T06:05:09;29.70;34.80
52799;DHT22;38667;42.872;74.622;2023-06-14T06:07:35;30.10;35.30
52799;DHT22;38667;42.872;74.622;2023-06-14T06:10:02;30.40;34.60
52799;DHT22;38667;42.872;74.622;2023-06-14T06:12:28;30.40;33.90
52799;DHT22;38667;42.872;74.622;2023-06-14T06:14:56;30.20;34.60
52799;DHT22;38667;42.872;74.622;2023-06-14T06:17:22;30.10;34.70
52799;DHT22;38667;42.872;74.622;2023-06-14T06:19:48;30.20;34.70
52799;DHT22;38667;42.872;74.622;2023-06-14T06:22:15;30.20;34.70
52799;DHT22;38667;42.872;74.622;2023-06-14T06:24:41;30.20;35.40
52799;DHT22;38667;42.872;74.622;2023-06-14T06:27:07;30.50;34.00
52799;DHT22;38667;42.872;74.622;2023-06-14T06:29:34;30.30;34.20
52799;DHT22;38667;42.872;74.622;2023-06-14T06:32:02;30.00;34.90
52799;DHT22;38667;42.872;74.622;2023-06-14T06:34:28;29.80;34.60
52799;DHT22;38667;42.872;74.622;2023-06-14T06:36:54;30.20;33.80
52799;DHT22;38667;42.872;74.622;2023-06-14T06:39:21;30.80;32.10
52799;DHT22;38667;42.872;74.622;2023-06-14T06:41:47;30.80;32.90
52799;DHT22;38667;42.872;74.622;2023-06-14T06:44:13;30.30;34.00
52799;DHT22;38667;42.872;74.622;2023-06-14T06:46:40;30.00;33.90
52799;DHT22;38667;42.872;74.622;2023-06-14T06:49:08;30.40;33.70
52799;DHT22;38667;42.872;74.622;2023-06-14T06:51:35;30.70;33.90
52799;DHT22;38667;42.872;74.622;2023-06-14T06:54:01;30.60;34.20
52799;DHT22;38667;42.872;74.622;2023-06-14T06:56:28;30.20;34.40
52799;DHT22;38667;42.872;74.622;2023-06-14T06:58:54;30.00;34.80
52799;DHT22;38667;42.872;74.622;2023-06-14T07:01:20;30.00;34.90
52799;DHT22;38667;42.872;74.622;2023-06-14T07:03:47;30.20;35.30
52799;DHT22;38667;42.872;74.622;2023-06-14T07:06:15;30.30;35.40
52799;DHT22;38667;42.872;74.622;2023-06-14T07:08:41;30.00;35.20
52799;DHT22;38667;42.872;74.622;2023-06-14T07:11:07;29.80;35.20
52799;DHT22;38667;42.872;74.622;2023-06-14T07:13:34;29.80;35.00
52799;DHT22;38667;42.872;74.622;2023-06-14T07:16:00;30.30;34.50
52799;DHT22;38667;42.872;74.622;2023-06-14T07:18:27;30.60;34.00
52799;DHT22;38667;42.872;74.622;2023-06-14T07:20:53;30.20;34.90
52799;DHT22;38667;42.872;74.622;2023-06-14T07:23:21;29.90;35.00
52799;DHT22;38667;42.872;74.622;2023-06-14T07:25:47;29.60;36.00
52799;DHT22;38667;42.872;74.622;2023-06-14T07:28:14;29.70;35.50
52799;DHT22;38667;42.872;74.622;2023-06-14T07:30:40;29.90;35.30
52799;DHT22;38667;42.872;74.622;2023-06-14T07:33:06;30.00;35.20
52799;DHT22;38667;42.872;74.622;2023-06-14T07:35:33;29.90;34.00
52799;DHT22;38667;42.872;74.622;2023-06-14T07:37:59;29.90;34.30
52799;DHT22;38667;42.872;74.622;2023-06-14T07:40:27;29.90;33.70
52799;DHT22;38667;42.872;74.622;2023-06-14T07:42:53;30.10;34.50
52799;DHT22;38667;42.872;74.622;2023-06-14T07:45:19;30.20;34.10
52799;DHT22;38667;42.872;74.622;2023-06-14T07:47:46;30.30;32.60
52799;DHT22;38667;42.872;74.622;2023-06-14T07:50:12;30.20;33.60
52799;DHT22;38667;42.872;74.622;2023-06-14T07:52:39;30.00;34.80
52799;DHT22;38667;42.872;74.622;2023-06-14T07:55:06;29.80;35.30
52799;DHT22;38667;42.872;74.622;2023-06-14T07:57:34;29.20;36.10
52799;DHT22;38667;42.872;74.622;2023-06-14T08:00:00;28.90;36.00
52799;DHT22;38667;42.872;74.622;2023-06-14T08:02:26;28.70;37.20
52799;DHT22;38667;42.872;74.622;2023-06-14T08:04:53;28.70;37.10
52799;DHT22;38667;42.872;74.622;2023-06-14T08:07:19;28.60;36.80
52799;DHT22;38667;42.872;74.622;2023-06-14T08:09:45;28.60;37.40
52799;DHT22;38667;42.872;74.622;2023-06-14T08:12:11;28.50;37.90
52799;DHT22;38667;42.872;74.622;2023-06-14T08:14:40;28.50;38.20
52799;DHT22;38667;42.872;74.622;2023-06-14T08:17:06;28.60;38.10
52799;DHT22;38667;42.872;74.622;2023-06-14T08:19:32;28.70;38.50
52799;DHT22;38667;42.872;74.622;2023-06-14T08:21:58;28.80;38.10
52799;DHT22;38667;42.872;74.622;2023-06-14T08:24:25;28.90;37.40
52799;DHT22;38667;42.872;74.622;2023-06-14T08:26:51;28.70;37.60
52799;DHT22;38667;42.872;74.622;2023-06-14T08:29:17;28.60;37.80
52799;DHT22;38667;42.872;74.622;2023-06-14T08:31:45;28.70;38.60
52799;DHT22;38667;42.872;74.622;2023-06-14T08:34:12;28.80;36.40
52799;DHT22;38667;42.872;74.622;2023-06-14T08:36:38;28.70;37.80
52799;DHT22;38667;42.872;74.622;2023-06-14T08:39:04;28.70;36.90
52799;DHT22;38667;42.872;74.622;2023-06-14T08:41:31;29.00;37.00
52799;DHT22;38667;42.872;74.622;2023-06-14T08:43:58;29.50;35.40
52799;DHT22;38667;42.872;74.622;2023-06-14T08:46:25;30.40;35.00
52799;DHT22;38667;42.872;74.622;2023-06-14T08:48:55;30.00;35.70
52799;DHT22;38667;42.872;74.622;2023-06-14T08:51:22;29.70;34.50
52799;DHT22;38667;42.872;74.622;2023-06-14T08:53:53;29.50;35.20
52799;DHT22;38667;42.872;74.622;2023-06-14T08:56:19;29.40;35.70
52799;DHT22;38667;42.872;74.622;2023-06-14T08:58:47;29.50;34.70
52799;DHT22;38667;42.872;74.622;2023-06-14T09:01:15;29.50;35.40
52799;DHT22;38667;42.872;74.622;2023-06-14T09:03:41;29.40;35.50
52799;DHT22;38667;42.872;74.622;2023-06-14T09:06:09;29.60;33.40
52799;DHT22;38667;42.872;74.622;2023-06-14T09:08:36;29.60;35.10
52799;DHT22;38667;42.872;74.622;2023-06-14T09:11:02;29.30;35.10
52799;DHT22;38667;42.872;74.622;2023-06-14T09:13:29;29.30;35.20
52799;DHT22;38667;42.872;74.622;2023-06-14T09:15:55;29.50;32.10
52799;DHT22;38667;42.872;74.622;2023-06-14T09:18:21;29.50;34.00
52799;DHT22;38667;42.872;74.622;2023-06-14T09:20:48;29.40;34.80
52799;DHT22;38667;42.872;74.622;2023-06-14T09:23:20;29.10;35.80
52799;DHT22;38667;42.872;74.622;2023-06-14T09:25:47;28.80;35.90
52799;DHT22;38667;42.872;74.622;2023-06-14T09:28:13;28.80;35.10
52799;DHT22;38667;42.872;74.622;2023-06-14T09:30:40;29.00;36.30
52799;DHT22;38667;42.872;74.622;2023-06-14T09:33:06;29.10;37.50
52799;DHT22;38667;42.872;74.622;2023-06-14T09:35:32;29.10;36.20
52799;DHT22;38667;42.872;74.622;2023-06-14T09:37:59;28.90;35.30
52799;DHT22;38667;42.872;74.622;2023-06-14T09:40:27;28.80;35.30
52799;DHT22;38667;42.872;74.622;2023-06-14T09:42:54;28.80;34.80
52799;DHT22;38667;42.872;74.622;2023-06-14T09:45:20;28.80;34.30
52799;DHT22;38667;42.872;74.622;2023-06-14T09:47:48;29.10;34.70
52799;DHT22;38667;42.872;74.622;2023-06-14T09:50:15;29.10;34.40
52799;DHT22;38667;42.872;74.622;2023-06-14T09:52:43;29.30;32.60
52799;DHT22;38667;42.872;74.622;2023-06-14T09:55:12;29.70;33.40
52799;DHT22;38667;42.872;74.622;2023-06-14T09:57:41;29.50;31.90
52799;DHT22;38667;42.872;74.622;2023-06-14T10:00:09;29.40;34.50
52799;DHT22;38667;42.872;74.622;2023-06-14T10:02:37;29.40;30.90
52799;DHT22;38667;42.872;74.622;2023-06-14T10:05:06;29.40;32.70
52799;DHT22;38667;42.872;74.622;2023-06-14T10:07:39;29.30;33.90
52799;DHT22;38667;42.872;74.622;2023-06-14T10:10:07;29.00;34.10
52799;DHT22;38667;42.872;74.622;2023-06-14T10:12:33;28.80;33.30
52799;DHT22;38667;42.872;74.622;2023-06-14T10:15:02;28.90;33.80
52799;DHT22;38667;42.872;74.622;2023-06-14T10:17:35;29.00;33.60
52799;DHT22;38667;42.872;74.622;2023-06-14T10:20:18;28.90;33.60
52799;DHT22;38667;42.872;74.622;2023-06-14T10:22:50;28.80;32.70
52799;DHT22;38667;42.872;74.622;2023-06-14T10:25:27;29.50;30.90
52799;DHT22;38667;42.872;74.622;2023-06-14T10:27:53;29.60;31.50
52799;DHT22;38667;42.872;74.622;2023-06-14T10:30:29;29.40;32.00
52799;DHT22;38667;42.872;74.622;2023-06-14T10:33:05;29.60;30.40
52799;DHT22;38667;42.872;74.622;2023-06-14T10:35:31;29.50;30.70
52799;DHT22;38667;42.872;74.622;2023-06-14T10:38:07;29.90;29.30
52799;DHT22;38667;42.872;74.622;2023-06-14T10:40:33;30.60;28.70
52799;DHT22;38667;42.872;74.622;2023-06-14T10:43:00;30.80;28.70
52799;DHT22;38667;42.872;74.622;2023-06-14T10:45:26;30.90;28.80
52799;DHT22;38667;42.872;74.622;2023-06-14T10:47:57;30.90;29.50
52799;DHT22;38667;42.872;74.622;2023-06-14T10:50:28;31.10;28.60
52799;DHT22;38667;42.872;74.622;2023-06-14T10:52:54;31.20;28.00
52799;DHT22;38667;42.872;74.622;2023-06-14T10:55:22;31.20;28.80
52799;DHT22;38667;42.872;74.622;2023-06-14T10:57:49;31.00;29.80
52799;DHT22;38667;42.872;74.622;2023-06-14T11:00:16;30.90;29.60
52799;DHT22;38667;42.872;74.622;2023-06-14T11:05:54;30.40;30.50
52799;DHT22;38667;42.872;74.622;2023-06-14T11:08:40;29.90;31.60
52799;DHT22;38667;42.872;74.622;2023-06-14T11:11:13;29.50;32.10
52799;DHT22;38667;42.872;74.622;2023-06-14T11:13:44;29.20;33.10
52799;DHT22;38667;42.872;74.622;2023-06-14T11:16:14;29.40;32.60
52799;DHT22;38667;42.872;74.622;2023-06-14T11:18:43;29.50;31.50
52799;DHT22;38667;42.872;74.622;2023-06-14T11:21:10;30.00;32.50
52799;DHT22;38667;42.872;74.622;2023-06-14T11:23:36;29.70;32.50
52799;DHT22;38667;42.872;74.622;2023-06-14T11:26:03;29.50;32.90
52799;DHT22;38667;42.872;74.622;2023-06-14T11:28:37;29.40;33.50
52799;DHT22;38667;42.872;74.622;2023-06-14T11:31:04;29.40;33.60
52799;DHT22;38667;42.872;74.622;2023-06-14T11:33:30;29.90;31.80
52799;DHT22;38667;42.872;74.622;2023-06-14T11:35:58;30.00;32.70
52799;DHT22;38667;42.872;74.622;2023-06-14T11:38:25;29.80;32.80
52799;DHT22;38667;42.872;74.622;2023-06-14T11:40:51;29.90;31.90
52799;DHT22;38667;42.872;74.622;2023-06-14T11:43:18;30.20;31.90
52799;DHT22;38667;42.872;74.622;2023-06-14T11:45:48;29.70;32.20
52799;DHT22;38667;42.872;74.622;2023-06-14T11:48:14;29.50;32.70
52799;DHT22;38667;42.872;74.622;2023-06-14T11:50:41;29.30;33.30
52799;DHT22;38667;42.872;74.622;2023-06-14T11:53:09;29.30;33.70
52799;DHT22;38667;42.872;74.622;2023-06-14T11:55:36;29.80;31.50
52799;DHT22;38667;42.872;74.622;2023-06-14T11:58:03;30.20;31.20
52799;DHT22;38667;42.872;74.622;2023-06-14T12:00:29;30.20;31.90
52799;DHT22;38667;42.872;74.622;2023-06-14T12:02:56;29.90;32.20
52799;DHT22;38667;42.872;74.622;2023-06-14T12:05:23;29.80;33.40
52799;DHT22;38667;42.872;74.622;2023-06-14T12:07:50;30.00;33.20
52799;DHT22;38667;42.872;74.622;2023-06-14T12:10:18;30.10;31.60
52799;DHT22;38667;42.872;74.622;2023-06-14T12:12:44;30.20;31.50
52799;DHT22;38667;42.872;74.622;2023-06-14T12:15:11;30.00;32.20
52799;DHT22;38667;42.872;74.622;2023-06-14T12:17:37;29.90;30.00
52799;DHT22;38667;42.872;74.622;2023-06-14T12:20:08;30.40;29.10
52799;DHT22;38667;42.872;74.622;2023-06-14T12:22:35;30.70;29.30
52799;DHT22;38667;42.872;74.622;2023-06-14T12:25:01;30.60;30.20
52799;DHT22;38667;42.872;74.622;2023-06-14T12:27:29;30.20;30.80
52799;DHT22;38667;42.872;74.622;2023-06-14T12:30:02;30.10;30.40
52799;DHT22;38667;42.872;74.622;2023-06-14T12:32:28;30.50;29.50
52799;DHT22;38667;42.872;74.622;2023-06-14T12:34:55;30.80;29.20
52799;DHT22;38667;42.872;74.622;2023-06-14T12:37:21;30.80;28.70
52799;DHT22;38667;42.872;74.622;2023-06-14T12:39:47;30.60;29.40
52799;DHT22;38667;42.872;74.622;2023-06-14T12:42:14;30.70;29.20
52799;DHT22;38667;42.872;74.622;2023-06-14T12:44:41;31.00;29.50
52799;DHT22;38667;42.872;74.622;2023-06-14T12:47:08;31.20;28.90
52799;DHT22;38667;42.872;74.622;2023-06-14T12:49:34;31.20;28.40
52799;DHT22;38667;42.872;74.622;2023-06-14T12:52:00;31.00;28.20
52799;DHT22;38667;42.872;74.622;2023-06-14T12:54:27;31.10;28.20
52799;DHT22;38667;42.872;74.622;2023-06-14T12:56:53;31.20;28.40
52799;DHT22;38667;42.872;74.622;2023-06-14T12:59:19;30.90;29.00
52799;DHT22;38667;42.872;74.622;2023-06-14T13:01:47;30.50;30.20
52799;DHT22;38667;42.872;74.622;2023-06-14T13:04:13;29.90;31.50
52799;DHT22;38667;42.872;74.622;2023-06-14T13:06:40;29.70;31.60
52799;DHT22;38667;42.872;74.622;2023-06-14T13:09:06;29.60;32.80
52799;DHT22;38667;42.872;74.622;2023-06-14T13:11:32;29.50;33.00
52799;DHT22;38667;42.872;74.622;2023-06-14T13:13:58;29.30;33.30
52799;DHT22;38667;42.872;74.622;2023-06-14T13:16:25;29.20;33.60
52799;DHT22;38667;42.872;74.622;2023-06-14T13:18:53;29.00;34.20
52799;DHT22;38667;42.872;74.622;2023-06-14T13:21:19;28.80;34.30
52799;DHT22;38667;42.872;74.622;2023-06-14T13:23:45;28.60;34.40
52799;DHT22;38667;42.872;74.622;2023-06-14T13:26:12;28.50;34.20
52799;DHT22;38667;42.872;74.622;2023-06-14T13:28:38;28.30;34.20
52799;DHT22;38667;42.872;74.622;2023-06-14T13:31:04;28.30;34.40
52799;DHT22;38667;42.872;74.622;2023-06-14T13:33:32;28.30;34.60
52799;DHT22;38667;42.872;74.622;2023-06-14T13:36:00;28.30;34.20
52799;DHT22;38667;42.872;74.622;2023-06-14T13:38:26;28.30;34.30
52799;DHT22;38667;42.872;74.622;2023-06-14T13:40:52;28.30;34.20
52799;DHT22;38667;42.872;74.622;2023-06-14T13:43:19;28.20;34.40
52799;DHT22;38667;42.872;74.622;2023-06-14T13:45:45;28.20;34.50
52799;DHT22;38667;42.872;74.622;2023-06-14T13:48:11;28.10;34.40
52799;DHT22;38667;42.872;74.622;2023-06-14T13:50:37;28.20;34.40
52799;DHT22;38667;42.872;74.622;2023-06-14T13:53:05;28.20;34.20
52799;DHT22;38667;42.872;74.622;2023-06-14T13:55:32;28.20;34.40
52799;DHT22;38667;42.872;74.622;2023-06-14T13:57:58;28.10;34.70
52799;DHT22;38667;42.872;74.622;2023-06-14T14:00:24;28.00;34.80
52799;DHT22;38667;42.872;74.622;2023-06-14T14:02:51;28.00;34.70
52799;DHT22;38667;42.872;74.622;2023-06-14T14:05:17;28.00;34.80
52799;DHT22;38667;42.872;74.622;2023-06-14T14:07:43;28.10;34.60
52799;DHT22;38667;42.872;74.622;2023-06-14T14:10:11;28.00;34.80
52799;DHT22;38667;42.872;74.622;2023-06-14T14:12:38;28.00;34.90
52799;DHT22;38667;42.872;74.622;2023-06-14T14:15:05;28.00;35.20
52799;DHT22;38667;42.872;74.622;2023-06-14T14:17:31;28.00;35.20
52799;DHT22;38667;42.872;74.622;2023-06-14T14:19:58;28.00;35.30
52799;DHT22;38667;42.872;74.622;2023-06-14T14:22:24;27.90;35.10
52799;DHT22;38667;42.872;74.622;2023-06-14T14:24:50;28.00;35.50
52799;DHT22;38667;42.872;74.622;2023-06-14T14:27:18;28.10;35.50
52799;DHT22;38667;42.872;74.622;2023-06-14T14:29:44;28.00;35.50
52799;DHT22;38667;42.872;74.622;2023-06-14T14:32:11;28.00;35.70
52799;DHT22;38667;42.872;74.622;2023-06-14T14:34:37;28.10;35.40
52799;DHT22;38667;42.872;74.622;2023-06-14T14:37:04;28.00;35.10
52799;DHT22;38667;42.872;74.622;2023-06-14T14:39:30;28.10;34.90
52799;DHT22;38667;42.872;74.622;2023-06-14T14:41:57;28.10;34.80
52799;DHT22;38667;42.872;74.622;2023-06-14T14:44:24;28.00;34.70
52799;DHT22;38667;42.872;74.622;2023-06-14T14:46:51;27.90;34.20
52799;DHT22;38667;42.872;74.622;2023-06-14T14:49:17;27.90;33.90
52799;DHT22;38667;42.872;74.622;2023-06-14T14:51:43;28.00;34.30
52799;DHT22;38667;42.872;74.622;2023-06-14T14:54:10;28.20;34.50
52799;DHT22;38667;42.872;74.622;2023-06-14T14:56:36;28.30;33.80
52799;DHT22;38667;42.872;74.622;2023-06-14T14:59:02;28.30;33.50
52799;DHT22;38667;42.872;74.622;2023-06-14T15:01:30;28.30;33.10
52799;DHT22;38667;42.872;74.622;2023-06-14T15:03:56;28.20;33.50
52799;DHT22;38667;42.872;74.622;2023-06-14T15:06:23;28.10;34.40
52799;DHT22;38667;42.872;74.622;2023-06-14T15:08:49;28.20;32.60
52799;DHT22;38667;42.872;74.622;2023-06-14T15:11:15;28.40;33.60
52799;DHT22;38667;42.872;74.622;2023-06-14T15:13:42;28.30;33.20
52799;DHT22;38667;42.872;74.622;2023-06-14T15:16:08;28.20;32.90